首页
METAR-TAF:

METAR-TAF

机场 :

玛丽埃塔, 喬治亞, 美国

纬度: 33-55N, 经度: 084-31W, 海拔: 326米

当前天气观测

该预报发布于26分钟前的14:56 UTC
风速8节,风向东转东北
温度 23°C
湿度 61%
气压 1024 hPa
能見度: 16.1公里
少量云层高于2500英尺
散云层高于25000英尺

METAR: KMGE 011456Z 07008KT 10SM FEW025 SCT250 23/15 A3025 RMK AO2A SLP237 50013

时间: 11:22 (15:22 UTC)

预报

该预报发布于2小时和22分钟前的13:00 UTC
预报有效从01日的 13点(UTC)到 02日的 19点(UTC)
风速8节,风向
能见度10公里或以上
少量云层高于2000英尺
多云层高于6000英尺
多云层高于25000英尺
成为
从 01日的 15点(UTC)到 01日的 16点(UTC)
风速10节,风向,有时为15节阵风
能见度10公里或以上
散云层高于5500英尺
多云层高于25000英尺
成为
从 02日的 00点(UTC)到 02日的 01点(UTC)
风速6节,风向多变
能见度10公里或以上
少量云层高于5500英尺

TAF: KMGE 011300Z 0113/0219 08008KT 9999 FEW020 BKN060 BKN250 QNH3020INS BECMG 0115/0116 09010G15KT 9999 SCT055 BKN250 QNH3018INS BECMG 0200/0201 VRB06KT 9999 FEW055 QNH3020INS TX29/0120Z TN16/0211Z

超过4000个机场的气象观测和天气预报(METAR&TAF报告)。

可查询的气象台以黄色和红色小点在地图上表示。

将鼠标移到小点上方,可查看气象台名称。

然后点击查看天气观测和预报。

如需切换地图:点击带黑十字的绿色按钮放大地图;点击带横线的绿色按钮缩小地图;或者点击绿色箭头查看邻近地区的地图。


METAR-TAF: